Time;durP1;ratioP1;P1;durP2;ratioP2;P2;SDS_P1;SDS_P2;PMS_P1;PMS_P2;Temp;Humidity;BMP_temperature;BMP_pressure;BME280_temperature;BME280_humidity;BME280_pressure;Samples;Min_cycle;Max_cycle;Signal;HPM_P1;HPM_P2
2022/11/07 00:02:06;;;;;;;25.65;9.30;;;;;;;9.48;100.00;100642.78;5075363;28;20058;-45
2022/11/07 00:04:32;;;;;;;28.20;9.57;;;;;;;9.52;100.00;100642.03;5075412;28;20384;-46
2022/11/07 00:06:57;;;;;;;31.40;9.27;;;;;;;9.56;100.00;100655.03;5074416;28;20496;-46
2022/11/07 00:09:22;;;;;;;27.42;9.05;;;;;;;9.62;100.00;100656.03;5075284;28;20108;-44
2022/11/07 00:11:48;;;;;;;27.02;9.02;;;;;;;9.63;100.00;100655.22;5075471;28;20032;-44
2022/11/07 00:14:15;;;;;;;23.48;9.63;;;;;;;9.62;100.00;100646.63;5074348;28;20496;-44
2022/11/07 00:16:42;;;;;;;25.13;8.38;;;;;;;9.61;100.00;100657.75;5075203;28;20384;-46
2022/11/07 00:19:08;;;;;;;28.25;9.10;;;;;;;9.56;100.00;100652.44;5074940;28;20024;-45
2022/11/07 00:21:33;;;;;;;23.75;8.48;;;;;;;9.50;100.00;100662.59;5074215;28;20490;-46
2022/11/07 00:23:59;;;;;;;24.25;8.93;;;;;;;9.42;100.00;100656.31;5074583;28;20031;-47
2022/11/07 00:26:24;;;;;;;24.80;8.43;;;;;;;9.39;100.00;100651.94;5075213;28;20024;-47
2022/11/07 00:28:49;;;;;;;21.30;8.57;;;;;;;9.43;100.00;100667.50;5074451;28;20029;-45
2022/11/07 00:31:16;;;;;;;27.90;8.68;;;;;;;9.42;100.00;100665.72;5074874;28;20035;-46
2022/11/07 00:33:42;;;;;;;30.98;9.52;;;;;;;9.38;100.00;100667.34;5074942;28;20032;-46
2022/11/07 00:36:08;;;;;;;28.63;9.52;;;;;;;9.31;100.00;100660.22;5073829;28;20499;-46
2022/11/07 00:38:33;;;;;;;21.65;9.05;;;;;;;9.30;100.00;100655.94;5074759;28;20020;-46
2022/11/07 00:41:04;;;;;;;29.98;8.98;;;;;;;9.22;100.00;100666.84;5074683;28;20023;-47
2022/11/07 00:43:30;;;;;;;26.25;8.85;;;;;;;9.21;100.00;100670.22;5073991;28;20074;-47
2022/11/07 00:45:56;;;;;;;26.88;8.63;;;;;;;9.18;100.00;100661.53;5074337;28;20368;-48
2022/11/07 00:48:23;;;;;;;22.88;9.23;;;;;;;9.14;100.00;100670.88;5074713;28;20025;-48
2022/11/07 00:50:48;;;;;;;30.55;9.25;;;;;;;9.15;100.00;100677.75;5073741;28;20055;-48
2022/11/07 00:53:13;;;;;;;22.50;8.80;;;;;;;9.11;100.00;100670.75;5074129;28;20056;-48
2022/11/07 00:55:39;;;;;;;29.85;9.40;;;;;;;9.10;100.00;100678.44;5074665;28;20024;-44
2022/11/07 00:58:04;;;;;;;26.58;8.95;;;;;;;9.13;100.00;100676.84;5073487;28;20124;-47
2022/11/07 01:00:29;;;;;;;22.25;8.35;;;;;;;9.13;100.00;100676.84;5074603;28;20048;-48
2022/11/07 01:05:39;;;;;;;25.60;8.73;;;;;;;9.05;100.00;100671.44;5074713;28;20494;-48
2022/11/07 01:08:05;;;;;;;29.83;9.30;;;;;;;9.06;100.00;100669.72;5074110;28;20480;-46
2022/11/07 01:10:30;;;;;;;27.27;8.32;;;;;;;9.05;100.00;100673.13;5073287;28;20134;-44
2022/11/07 01:12:55;;;;;;;29.02;9.15;;;;;;;9.04;100.00;100677.41;5073740;28;20024;-45
2022/11/07 01:15:21;;;;;;;30.10;9.27;;;;;;;9.02;100.00;100673.03;5074548;28;20036;-46
2022/11/07 01:17:46;;;;;;;25.45;8.05;;;;;;;9.05;100.00;100685.97;5073233;28;20107;-46
2022/11/07 01:20:11;;;;;;;26.50;9.23;;;;;;;9.03;100.00;100683.34;5073647;28;20029;-45
2022/11/07 01:22:37;;;;;;;23.70;8.35;;;;;;;8.99;100.00;100696.94;5074065;28;20034;-47
2022/11/07 01:25:03;;;;;;;27.25;8.88;;;;;;;9.00;100.00;100698.69;5073013;28;20017;-47
2022/11/07 01:27:28;;;;;;;29.60;8.90;;;;;;;9.05;100.00;100697.16;5074335;28;20109;-46
2022/11/07 01:29:54;;;;;;;27.17;9.23;;;;;;;9.04;100.00;100705.69;5073469;28;20543;-47
2022/11/07 01:32:19;;;;;;;25.10;8.77;;;;;;;9.04;100.00;100709.97;5073026;28;20078;-46
2022/11/07 01:34:45;;;;;;;33.42;9.27;;;;;;;9.00;100.00;100698.69;5073643;28;20029;-44
2022/11/07 01:37:10;;;;;;;26.45;9.05;;;;;;;9.04;100.00;100695.41;5073539;28;20544;-47
2022/11/07 01:39:35;;;;;;;37.78;9.48;;;;;;;9.04;100.00;100709.97;5072966;28;20025;-45
2022/11/07 01:42:01;;;;;;;31.63;9.32;;;;;;;9.03;100.00;100708.19;5073452;28;20028;-48
2022/11/07 01:44:26;;;;;;;23.77;9.07;;;;;;;9.01;100.00;100699.56;5073936;28;20090;-44
2022/11/07 01:46:56;;;;;;;29.63;8.80;;;;;;;9.02;100.00;100703.88;5072510;28;20048;-45
2022/11/07 01:49:29;;;;;;;24.65;8.43;;;;;;;8.98;100.00;100696.91;5073497;28;20267;-47
2022/11/07 01:52:19;;;;;;;29.50;9.85;;;;;;;8.99;100.00;100701.22;5073054;28;20498;-48
2022/11/07 01:54:55;;;;;;;27.25;9.68;;;;;;;8.99;100.00;100701.22;5073448;28;20112;-45
2022/11/07 01:57:26;;;;;;;28.90;10.25;;;;;;;9.03;100.00;100708.19;5072716;28;20384;-47
2022/11/07 01:59:54;;;;;;;25.27;9.02;;;;;;;9.07;100.00;100707.47;5072409;28;20034;-47
2022/11/07 02:02:22;;;;;;;32.85;9.25;;;;;;;9.11;100.00;100706.75;5073414;28;20035;-46
2022/11/07 02:04:48;;;;;;;35.22;10.40;;;;;;;9.16;100.00;100715.50;5073359;28;20032;-47
2022/11/07 02:07:22;;;;;;;32.75;9.50;;;;;;;9.20;100.00;100707.03;5072174;28;20024;-46
2022/11/07 02:09:49;;;;;;;28.30;9.48;;;;;;;9.29;100.00;100713.34;5073298;28;20054;-44
2022/11/07 02:12:15;;;;;;;32.47;8.82;;;;;;;9.37;100.00;100717.91;5072824;28;20037;-43
2022/11/07 02:14:42;;;;;;;29.23;9.45;;;;;;;9.39;100.00;100715.38;5072444;28;20032;-45
2022/11/07 02:17:08;;;;;;;32.03;9.13;;;;;;;9.39;100.00;100712.81;5072847;28;20025;-46
2022/11/07 02:19:39;;;;;;;32.90;9.32;;;;;;;9.46;100.00;100725.03;5072967;28;20391;-45
2022/11/07 02:22:13;;;;;;;28.23;9.02;;;;;;;9.50;100.00;100720.84;5071781;28;20380;-44
2022/11/07 02:24:39;;;;;;;29.20;9.20;;;;;;;9.49;100.00;100712.28;5072753;28;20024;-47
2022/11/07 02:27:17;;;;;;;29.88;9.02;;;;;;;9.49;100.00;100719.09;5073164;28;20051;-46
2022/11/07 02:29:46;;;;;;;29.30;8.80;;;;;;;9.46;100.00;100719.03;5073000;28;20078;-47
2022/11/07 02:32:11;;;;;;;42.65;15.07;;;;;;;9.39;100.00;100705.09;5072627;28;20024;-46
2022/11/07 02:34:37;;;;;;;55.55;17.73;;;;;;;9.39;100.00;100723.09;5072368;28;20033;-47
2022/11/07 02:37:08;;;;;;;44.75;16.08;;;;;;;9.37;100.00;100720.47;5072591;28;20381;-47
2022/11/07 02:39:33;;;;;;;64.10;22.10;;;;;;;9.38;100.00;100713.63;5073036;28;20027;-45
2022/11/07 02:42:00;;;;;;;115.50;38.53;;;;;;;9.36;100.00;100717.84;5071940;28;20032;-45
2022/11/07 02:44:27;;;;;;;41.92;15.30;;;;;;;9.35;100.00;100713.53;5072545;28;20476;-44
2022/11/07 02:46:52;;;;;;;38.47;12.57;;;;;;;9.37;100.00;100704.16;5072321;28;20048;-44
2022/11/07 02:49:18;;;;;;;28.15;8.75;;;;;;;9.42;100.00;100702.59;5071900;28;20426;-47
2022/11/07 02:51:43;;;;;;;39.17;10.95;;;;;;;9.40;100.00;100709.41;5072526;28;20102;-48
2022/11/07 02:54:08;;;;;;;40.42;10.32;;;;;;;9.41;100.00;100710.28;5072531;28;20525;-44
2022/11/07 02:56:33;;;;;;;30.25;9.25;;;;;;;9.39;100.00;100712.81;5072105;28;20035;-46
2022/11/07 02:58:59;;;;;;;38.85;10.20;;;;;;;9.38;100.00;100711.06;5072502;28;20434;-44
2022/11/07 03:01:24;;;;;;;34.22;11.90;;;;;;;9.38;100.00;100700.78;5072739;28;20040;-47
2022/11/07 03:03:50;;;;;;;38.25;10.48;;;;;;;9.37;100.00;100696.44;5071714;28;20028;-47
2022/11/07 03:06:19;;;;;;;30.35;11.00;;;;;;;9.37;100.00;100699.00;5072069;28;20601;-44
2022/11/07 03:08:45;;;;;;;38.97;10.98;;;;;;;9.37;100.00;100699.00;5072752;28;20032;-45
2022/11/07 03:11:11;;;;;;;33.97;9.25;;;;;;;9.40;100.00;100699.13;5075565;28;20169;-45
2022/11/07 03:13:37;;;;;;;34.78;10.82;;;;;;;9.35;100.00;100692.97;5076669;28;20025;-47
2022/11/07 03:16:08;;;;;;;32.33;10.02;;;;;;;9.30;100.00;100707.38;5076051;28;20025;-45
2022/11/07 03:18:34;;;;;;;34.58;10.18;;;;;;;9.30;100.00;100707.38;5075519;28;20031;-44
2022/11/07 03:20:59;;;;;;;35.47;10.00;;;;;;;9.29;100.00;100705.63;5075883;28;20032;-47
2022/11/07 03:23:24;;;;;;;33.75;9.82;;;;;;;9.25;100.00;100702.06;5076269;28;20038;-43
2022/11/07 03:25:50;;;;;;;41.63;10.75;;;;;;;9.27;100.00;100704.69;5075897;28;20028;-48
2022/11/07 03:28:15;;;;;;;37.53;9.88;;;;;;;9.28;100.00;100699.59;5076087;28;20025;-46
2022/11/07 03:30:40;;;;;;;35.70;8.93;;;;;;;9.26;100.00;100703.81;5075516;28;20346;-47
2022/11/07 03:33:06;;;;;;;37.55;9.77;;;;;;;9.22;100.00;100705.41;5075843;28;20031;-45
2022/11/07 03:35:31;;;;;;;31.25;8.00;;;;;;;9.22;100.00;100708.00;5075934;28;20029;-48
2022/11/07 03:37:57;;;;;;;40.20;9.30;;;;;;;9.28;100.00;100703.88;5074958;28;20029;-44
2022/11/07 03:40:22;;;;;;;36.15;10.00;;;;;;;9.29;100.00;100706.47;5075822;28;20024;-46
2022/11/07 03:42:47;;;;;;;34.67;9.05;;;;;;;9.32;100.00;100711.75;5075882;28;20025;-46
2022/11/07 03:45:14;;;;;;;38.75;9.80;;;;;;;9.31;100.00;100714.25;5075025;28;20415;-44
2022/11/07 03:47:41;;;;;;;36.72;8.98;;;;;;;9.32;100.00;100713.44;5075608;28;20043;-44
2022/11/07 03:50:09;;;;;;;37.97;9.85;;;;;;;9.37;100.00;100715.34;5075414;28;20047;-45
2022/11/07 03:52:35;;;;;;;35.40;10.20;;;;;;;9.39;100.00;100717.97;5075101;28;20086;-48
2022/11/07 03:55:00;;;;;;;34.28;9.32;;;;;;;9.46;100.00;100719.03;5075309;28;20020;-46
2022/11/07 03:57:25;;;;;;;29.42;7.80;;;;;;;9.54;100.00;100712.41;5075727;28;20032;-47
2022/11/07 03:59:51;;;;;;;31.35;7.28;;;;;;;9.56;100.00;100721.91;5074854;28;20066;-47
2022/11/07 04:02:16;;;;;;;39.80;8.38;;;;;;;9.58;100.00;100723.69;5075236;28;20464;-45
2022/11/07 04:04:41;;;;;;;37.80;8.35;;;;;;;9.62;100.00;100715.22;5075355;28;20078;-46
2022/11/07 04:07:06;;;;;;;33.22;7.60;;;;;;;9.64;100.00;100714.44;5074295;28;20131;-48
2022/11/07 04:09:32;;;;;;;34.58;7.70;;;;;;;9.64;100.00;100717.00;5075548;28;20035;-46
2022/11/07 04:17:27;;;;;;;34.08;7.97;;;;;;;9.68;100.00;100711.16;5075310;28;20043;-47
2022/11/07 04:19:54;;;;;;;46.40;8.00;;;;;;;9.70;100.00;100708.63;5073957;28;20036;-42
2022/11/07 04:22:20;;;;;;;;;;;;;;;9.72;100.00;100713.00;5075740;28;20020;-46
2022/11/07 04:24:45;;;;;;;29.00;6.97;;;;;;;9.61;100.00;100709.22;5074991;28;19919;-45
2022/11/07 04:29:55;;;;;;;37.92;8.25;;;;;;;9.59;100.00;100722.84;5074737;28;20498;-46
2022/11/07 04:32:23;;;;;;;32.10;7.70;;;;;;;9.58;100.00;100719.44;5075013;28;20028;-44
2022/11/07 04:34:48;;;;;;;39.67;8.63;;;;;;;9.55;100.00;100725.34;5074091;28;20028;-48
2022/11/07 04:37:14;;;;;;;36.00;7.15;;;;;;;9.53;100.00;100726.97;5074641;28;20024;-45
2022/11/07 04:39:39;;;;;;;52.83;8.15;;;;;;;9.49;100.00;100725.16;5074969;28;20051;-47
2022/11/07 04:42:04;;;;;;;39.00;7.63;;;;;;;9.48;100.00;100725.09;5073672;28;20042;-48
2022/11/07 04:44:30;;;;;;;39.08;7.97;;;;;;;9.46;100.00;100727.59;5074631;28;20388;-47
2022/11/07 04:46:55;;;;;;;35.70;7.82;;;;;;;9.47;100.00;100725.91;5074378;28;20071;-44
2022/11/07 04:49:20;;;;;;;35.95;7.68;;;;;;;9.44;100.00;100724.13;5074120;28;20380;-47
2022/11/07 04:51:45;;;;;;;46.78;8.50;;;;;;;9.49;100.00;100729.41;5074685;28;20039;-43
2022/11/07 04:54:12;;;;;;;39.08;7.68;;;;;;;9.48;100.00;100725.97;5074310;28;20066;-47
2022/11/07 04:56:38;;;;;;;45.70;7.38;;;;;;;9.53;100.00;100732.13;5073725;28;20047;-45
2022/11/07 04:59:03;;;;;;;45.10;9.25;;;;;;;9.53;100.00;100731.28;5074054;28;20464;-47
2022/11/07 05:01:28;;;;;;;34.97;7.10;;;;;;;9.57;100.00;100725.38;5074511;28;20035;-47
2022/11/07 05:03:53;;;;;;;42.88;7.65;;;;;;;9.59;100.00;100730.56;5073405;28;20116;-43
2022/11/07 05:06:19;;;;;;;44.25;7.97;;;;;;;9.59;100.00;100730.56;5074340;28;20078;-45
2022/11/07 05:08:44;;;;;;;30.38;7.80;;;;;;;9.59;100.00;100726.28;5074277;28;20021;-47
2022/11/07 05:11:10;;;;;;;37.47;8.15;;;;;;;9.61;100.00;100732.38;5073184;28;20017;-47
2022/11/07 05:13:36;;;;;;;47.00;8.02;;;;;;;9.64;100.00;100734.16;5074051;28;20024;-47
2022/11/07 05:16:01;;;;;;;44.05;7.85;;;;;;;9.69;100.00;100742.91;5072959;28;20066;-44
2022/11/07 05:18:26;;;;;;;43.80;7.30;;;;;;;9.74;100.00;100749.06;5074186;28;20035;-46
2022/11/07 05:20:51;;;;;;;38.67;7.22;;;;;;;9.75;100.00;100747.34;5073986;28;20056;-46
2022/11/07 05:23:17;;;;;;;38.25;6.57;;;;;;;9.75;100.00;100742.22;5072982;28;20384;-48
2022/11/07 05:25:44;;;;;;;44.25;7.70;;;;;;;9.77;100.00;100750.88;5073885;28;20032;-46
2022/11/07 05:28:11;;;;;;;42.70;7.20;;;;;;;9.79;100.00;100741.50;5073497;28;20016;-44
2022/11/07 05:30:41;;;;;;;40.97;8.07;;;;;;;9.77;100.00;100751.72;5073253;28;20028;-47
2022/11/07 05:33:10;;;;;;;43.15;7.32;;;;;;;9.75;100.00;100747.34;5072805;28;20025;-47
2022/11/07 05:35:36;;;;;;;44.67;7.63;;;;;;;9.77;100.00;100745.72;5073788;28;20158;-47
2022/11/07 05:38:02;;;;;;;32.95;6.82;;;;;;;9.77;100.00;100736.28;5072775;28;20112;-45
2022/11/07 05:40:27;;;;;;;40.63;8.05;;;;;;;9.77;100.00;100744.00;5073664;28;20365;-46
2022/11/07 05:42:57;;;;;;;48.08;7.38;;;;;;;9.82;100.00;100755.31;5073115;28;20025;-43
2022/11/07 05:45:23;;;;;;;45.78;7.45;;;;;;;9.83;100.00;100745.91;5072974;28;20021;-46
2022/11/07 05:47:55;;;;;;;46.85;7.63;;;;;;;9.87;100.00;100743.47;5073309;28;20454;-45
2022/11/07 05:50:21;;;;;;;46.55;7.97;;;;;;;9.87;100.00;100750.31;5073373;28;20370;-46
2022/11/07 05:52:46;;;;;;;37.13;6.75;;;;;;;9.88;100.00;100750.38;5072674;28;20028;-48
2022/11/07 05:55:11;;;;;;;43.33;7.25;;;;;;;9.89;100.00;100754.69;5073008;28;20081;-48
2022/11/07 05:57:36;;;;;;;40.40;7.07;;;;;;;9.93;100.00;100750.53;5073501;28;20025;-47
2022/11/07 06:00:02;;;;;;;41.42;7.25;;;;;;;9.93;100.00;100749.63;5072338;28;20403;-44
2022/11/07 06:02:27;;;;;;;43.60;7.13;;;;;;;9.96;100.00;100747.16;5073291;28;20025;-45
2022/11/07 06:04:53;;;;;;;39.45;6.88;;;;;;;9.93;100.00;100740.22;5072882;28;20032;-43
2022/11/07 06:07:18;;;;;;;40.13;7.85;;;;;;;9.91;100.00;100748.72;5072323;28;20078;-45
2022/11/07 06:09:43;;;;;;;45.15;7.85;;;;;;;9.89;100.00;100751.25;5073063;28;20107;-44
2022/11/07 06:12:08;;;;;;;27.60;6.65;;;;;;;9.89;100.00;100757.28;5072789;28;20082;-44
2022/11/07 06:14:34;;;;;;;39.97;7.43;;;;;;;9.92;100.00;100750.47;5072421;28;20027;-46
2022/11/07 06:16:59;;;;;;;42.15;7.97;;;;;;;9.94;100.00;100744.56;5072917;28;20028;-47
2022/11/07 06:19:24;;;;;;;45.33;8.13;;;;;;;10.00;100.00;100751.56;5072360;28;20020;-46
2022/11/07 06:21:49;;;;;;;42.72;7.50;;;;;;;10.04;100.00;100753.41;5073068;28;20396;-45
2022/11/07 06:24:15;;;;;;;54.65;7.70;;;;;;;10.06;100.00;100751.78;5072579;28;20036;-46
2022/11/07 06:26:40;;;;;;;41.78;7.55;;;;;;;10.08;100.00;100752.66;5072402;28;20051;-44
2022/11/07 06:29:06;;;;;;;42.78;7.43;;;;;;;10.08;100.00;100754.38;5072790;28;20016;-44
2022/11/07 06:31:31;;;;;;;39.13;7.25;;;;;;;10.10;100.00;100751.03;5072805;28;20074;-45
2022/11/07 06:33:56;;;;;;;51.80;6.88;;;;;;;10.09;100.00;100763.88;5071725;28;20476;-43
2022/11/07 06:36:21;;;;;;;42.70;7.68;;;;;;;10.10;100.00;100756.19;5072712;28;20021;-46
2022/11/07 06:38:53;;;;;;;40.92;8.07;;;;;;;10.13;100.00;100758.84;5072586;28;20421;-46
2022/11/07 06:41:18;;;;;;;38.20;7.70;;;;;;;10.18;100.00;100767.56;5071757;28;20464;-44
2022/11/07 06:43:44;;;;;;;33.65;6.43;;;;;;;10.21;100.00;100765.09;5072574;28;20021;-48
2022/11/07 06:46:12;;;;;;;38.58;7.53;;;;;;;10.21;100.00;100765.09;5072329;28;20028;-43
2022/11/07 06:48:37;;;;;;;;;;;;;;;10.28;100.00;100755.00;5072355;28;20032;-47
2022/11/07 06:51:04;;;;;;;34.15;7.18;;;;;;;10.23;100.00;100772.00;5072350;28;19912;-44
2022/11/07 06:53:29;;;;;;;29.53;7.63;;;;;;;10.20;100.00;100771.06;5072579;28;20028;-44
2022/11/07 06:55:57;;;;;;;45.17;7.72;;;;;;;10.21;100.00;100769.38;5071749;28;20028;-46
2022/11/07 06:58:23;;;;;;;35.90;7.70;;;;;;;10.24;100.00;100771.16;5072472;28;20468;-44
2022/11/07 07:00:48;;;;;;;42.13;7.75;;;;;;;10.26;100.00;100772.09;5072659;28;20025;-46
2022/11/07 07:03:13;;;;;;;42.72;7.80;;;;;;;10.23;100.00;100778.03;5071420;28;20032;-45
2022/11/07 07:05:38;;;;;;;43.25;7.70;;;;;;;10.24;100.00;100778.88;5072456;28;20020;-44
2022/11/07 07:08:05;;;;;;;39.55;7.57;;;;;;;10.27;100.00;100779.00;5072071;28;20373;-48
2022/11/07 07:10:35;;;;;;;41.40;7.95;;;;;;;10.32;100.00;100783.44;5071575;28;20460;-47
2022/11/07 07:13:00;;;;;;;37.80;7.57;;;;;;;10.30;100.00;100784.22;5072161;28;20028;-47
2022/11/07 07:15:25;;;;;;;51.70;7.70;;;;;;;10.31;100.00;100775.69;5072519;28;20029;-45
2022/11/07 07:17:50;;;;;;;41.72;6.78;;;;;;;10.32;100.00;100787.72;5071631;28;20032;-47
2022/11/07 07:20:16;;;;;;;43.78;8.05;;;;;;;10.33;100.00;100799.78;5072028;28;20418;-46
2022/11/07 07:22:43;;;;;;;41.58;7.68;;;;;;;10.35;100.00;100795.53;5071250;28;20028;-45
2022/11/07 07:25:08;;;;;;;50.63;9.50;;;;;;;10.34;100.00;100793.78;5072071;28;20030;-46
2022/11/07 07:27:34;;;;;;;34.90;7.15;;;;;;;10.40;100.00;100796.59;5072334;28;20495;-46
2022/11/07 07:29:59;;;;;;;39.92;7.78;;;;;;;10.41;100.00;100785.44;5071179;28;20062;-47
2022/11/07 07:32:24;;;;;;;54.63;7.95;;;;;;;10.50;100.00;100797.75;5072278;28;20472;-47
2022/11/07 07:34:51;;;;;;;31.48;6.85;;;;;;;10.57;100.00;100798.78;5072093;28;20025;-46
2022/11/07 07:37:16;;;;;;;37.00;6.38;;;;;;;10.59;100.00;100812.56;5070864;28;20503;-46
2022/11/07 07:39:41;;;;;;;36.55;6.05;;;;;;;10.61;100.00;100808.34;5072198;28;20028;-47
2022/11/07 07:42:07;;;;;;;45.10;7.13;;;;;;;10.62;100.00;100804.94;5071923;28;20129;-47
2022/11/07 07:44:33;;;;;;;33.42;7.10;;;;;;;10.66;100.00;100809.34;5071064;28;20480;-47
2022/11/07 07:46:58;;;;;;;47.47;7.75;;;;;;;10.67;100.00;100811.09;5071602;28;20054;-49
2022/11/07 07:49:23;;;;;;;38.67;7.05;;;;;;;10.67;100.00;100811.09;5072055;28;20098;-48
2022/11/07 07:51:49;;;;;;;34.72;6.35;;;;;;;10.64;100.00;100814.47;5071229;28;20028;-44
2022/11/07 07:54:14;;;;;;;30.65;6.07;;;;;;;10.70;100.00;100811.19;5071851;28;20025;-45
2022/11/07 07:56:39;;;;;;;41.78;7.63;;;;;;;10.80;100.00;100812.31;5074989;28;20094;-45
2022/11/07 07:59:05;;;;;;;36.45;6.72;;;;;;;10.85;100.00;100821.91;5074561;28;20031;-47
2022/11/07 08:01:30;;;;;;;37.97;6.55;;;;;;;10.93;100.00;100824.72;5075486;28;20542;-47
2022/11/07 08:03:55;;;;;;;37.30;6.63;;;;;;;11.00;100.00;100823.16;5075161;28;20025;-47
2022/11/07 08:06:21;;;;;;;32.22;6.40;;;;;;;11.08;100.00;100826.84;5074560;28;20434;-47
2022/11/07 08:08:46;;;;;;;37.75;6.30;;;;;;;11.16;100.00;100819.31;5075544;28;20025;-47
2022/11/07 08:11:12;;;;;;;37.00;6.80;;;;;;;11.22;100.00;100831.50;5075078;28;20531;-47
2022/11/07 08:13:37;;;;;;;41.95;6.95;;;;;;;11.26;100.00;100833.31;5074678;28;20056;-44
2022/11/07 08:16:06;;;;;;;42.92;6.75;;;;;;;11.29;100.00;100834.28;5074906;28;20107;-46
2022/11/07 08:18:31;;;;;;;33.53;6.25;;;;;;;11.33;100.00;100835.25;5075258;28;20056;-47
2022/11/07 08:20:57;;;;;;;38.78;6.80;;;;;;;11.33;100.00;100830.94;5073986;28;20056;-46
2022/11/07 08:23:23;;;;;;;39.88;7.00;;;;;;;11.31;100.00;100840.38;5075209;28;20043;-47
2022/11/07 08:25:53;;;;;;;34.28;6.30;;;;;;;11.29;100.00;100826.53;5075167;28;20028;-46
2022/11/07 08:28:25;;;;;;;41.55;6.97;;;;;;;11.41;100.00;100848.34;5074901;28;20029;-43
2022/11/07 08:31:17;;;;;;;35.25;6.15;;;;;;;11.55;100.00;100846.13;5074994;28;20115;-45
2022/11/07 08:33:42;;;;;;;35.88;6.60;;;;;;;11.55;100.00;100841.81;5069389;28;20442;-47
2022/11/07 08:36:08;;;;;;;36.25;6.70;;;;;;;11.53;100.00;100839.22;5074788;28;20464;-44
2022/11/07 08:38:35;;;;;;;49.75;6.85;;;;;;;11.57;100.00;100850.50;5075062;28;20032;-46
2022/11/07 08:41:01;;;;;;;36.15;6.65;;;;;;;11.63;100.00;100850.66;5073600;28;20016;-45
2022/11/07 08:43:27;;;;;;;36.33;6.47;;;;;;;11.70;100.00;100852.53;5074682;28;20039;-46
2022/11/07 08:45:54;;;;;;;40.17;6.53;;;;;;;11.75;100.00;100857.84;5074474;28;20378;-45
2022/11/07 08:48:20;;;;;;;33.50;6.60;;;;;;;11.79;100.00;100863.94;5073740;28;20055;-46
2022/11/07 08:50:49;;;;;;;35.92;7.82;;;;;;;11.78;100.00;100860.47;5074809;28;20078;-48
2022/11/07 08:53:14;;;;;;;38.58;6.03;;;;;;;11.78;100.00;100865.63;5074443;28;20034;-47
2022/11/07 08:55:40;;;;;;;35.25;6.95;;;;;;;11.81;100.00;100867.44;5073695;28;20035;-47
2022/11/07 08:58:06;;;;;;;33.97;6.35;;;;;;;11.90;100.00;100869.38;5074233;28;20468;-46
2022/11/07 09:00:34;;;;;;;42.75;6.65;;;;;;;11.98;100.00;100883.38;5074300;28;20046;-44
2022/11/07 09:03:03;;;;;;;35.78;7.10;;;;;;;11.95;100.00;100888.44;5073310;28;20031;-46
2022/11/07 09:05:28;;;;;;;34.15;6.50;;;;;;;11.92;100.00;100884.06;5074318;28;20026;-44
2022/11/07 09:07:54;;;;;;;36.00;6.40;;;;;;;11.91;100.00;100889.19;5073828;28;20035;-47
2022/11/07 09:10:19;;;;;;;43.00;7.22;;;;;;;11.91;100.00;100889.19;5073306;28;20029;-48
2022/11/07 09:12:49;;;;;;;39.65;5.75;;;;;;;11.88;100.00;100891.69;5073997;28;20112;-47
2022/11/07 09:15:14;;;;;;;30.23;6.15;;;;;;;11.88;100.00;100891.69;5072870;28;20052;-47
2022/11/07 09:17:40;;;;;;;43.13;7.30;;;;;;;11.84;100.00;100881.28;5073882;28;20055;-44
2022/11/07 09:20:07;;;;;;;36.35;6.20;;;;;;;11.83;100.00;100889.88;5073666;28;20036;-46
2022/11/07 09:22:32;;;;;;;38.88;6.47;;;;;;;11.83;100.00;100900.19;5073238;28;20025;-48
2022/11/07 09:24:57;;;;;;;42.58;7.43;;;;;;;11.86;100.00;100896.81;5073753;28;20024;-43
2022/11/07 09:27:23;;;;;;;34.63;7.20;;;;;;;11.85;100.00;100893.38;5073812;28;20451;-48
2022/11/07 09:29:48;;;;;;;37.33;6.57;;;;;;;11.92;100.00;100899.56;5073052;28;20074;-47
2022/11/07 09:32:13;;;;;;;37.40;6.93;;;;;;;11.98;100.00;100904.91;5073571;28;20025;-46
2022/11/07 09:34:38;;;;;;;34.30;6.10;;;;;;;12.04;100.00;100899.03;5073904;28;20032;-47
2022/11/07 09:37:04;;;;;;;41.22;7.43;;;;;;;12.06;100.00;100906.78;5072626;28;20024;-46
2022/11/07 09:39:29;;;;;;;37.30;6.78;;;;;;;12.05;100.00;100905.94;5073731;28;20445;-47
2022/11/07 09:42:27;;;;;;;33.35;6.45;;;;;;;12.10;100.00;100899.16;5073068;28;20027;-43
2022/11/07 09:44:58;;;;;;;36.10;7.47;;;;;;;12.06;100.00;100906.78;5072668;28;20037;-43
2022/11/07 09:47:42;;;;;;;36.13;6.22;;;;;;;12.11;100.00;100911.25;5073080;28;20071;-46
2022/11/07 09:50:16;;;;;;;35.25;7.35;;;;;;;12.13;100.00;100914.72;5073037;28;20032;-46
2022/11/07 09:52:51;;;;;;;40.45;7.20;;;;;;;12.18;100.00;100915.72;5072981;28;20048;-47
2022/11/07 09:55:22;;;;;;;47.60;7.13;;;;;;;12.22;99.87;100918.41;5073022;28;20045;-46
2022/11/07 09:57:51;;;;;;;36.97;6.97;;;;;;;12.26;100.00;100910.72;5072353;28;20472;-46
2022/11/07 10:00:19;;;;;;;36.10;7.28;;;;;;;12.29;100.00;100916.00;5072869;28;20032;-47
2022/11/07 10:02:51;;;;;;;35.00;6.72;;;;;;;12.29;99.90;100920.28;5073145;28;20033;-48
2022/11/07 10:05:28;;;;;;;41.58;6.32;;;;;;;12.31;99.37;100918.59;5071922;28;20040;-47
2022/11/07 10:08:00;;;;;;;42.78;7.30;;;;;;;12.30;98.83;100922.03;5072718;28;20051;-45
2022/11/07 10:10:47;;;;;;;36.63;7.03;;;;;;;12.34;99.33;100929.00;5073084;28;20097;-48
2022/11/07 10:13:32;;;;;;;44.00;7.20;;;;;;;12.33;99.33;100914.34;5071847;28;20384;-47
2022/11/07 10:16:11;;;;;;;34.65;6.88;;;;;;;12.39;99.15;100913.63;5072631;28;20475;-46
2022/11/07 10:19:06;;;;;;;36.92;6.68;;;;;;;12.38;99.33;100920.47;5071780;28;20024;-47
2022/11/07 10:21:54;;;;;;;36.15;7.13;;;;;;;12.37;98.56;100921.34;5072900;28;20104;-46
2022/11/07 10:24:41;;;;;;;41.65;6.88;;;;;;;12.38;99.05;100922.22;5072022;28;20033;-46
2022/11/07 10:27:09;;;;;;;38.97;6.53;;;;;;;12.41;98.80;100925.75;5071775;28;20490;-48
2022/11/07 10:29:43;;;;;;;37.60;6.72;;;;;;;12.40;98.20;100924.00;5072816;28;20020;-46
2022/11/07 10:32:21;;;;;;;30.35;6.35;;;;;;;12.45;98.64;100932.72;5072483;28;20051;-48
2022/11/07 10:34:54;;;;;;;44.25;7.18;;;;;;;12.47;98.14;100928.47;5072118;28;20033;-48
2022/11/07 10:37:19;;;;;;;38.60;6.85;;;;;;;12.60;97.66;100926.16;5072903;28;20024;-48
2022/11/07 10:39:45;;;;;;;41.58;7.03;;;;;;;12.72;97.02;100931.59;5071782;28;20043;-48
2022/11/07 10:42:22;;;;;;;37.30;6.72;;;;;;;12.91;96.19;100947.53;5072353;28;20025;-46
2022/11/07 10:44:47;;;;;;;36.53;6.93;;;;;;;13.00;94.06;100937.34;5072514;28;20028;-47
2022/11/07 10:47:15;;;;;;;42.70;7.05;;;;;;;13.09;93.76;100947.94;5071340;28;20042;-48
2022/11/07 10:49:51;;;;;;;;;;;;;;;13.16;93.93;100943.75;5072920;28;20372;-47
2022/11/07 10:52:18;;;;;;;35.22;6.45;;;;;;;13.04;93.32;100943.47;5072436;28;19916;-47
2022/11/07 10:54:43;;;;;;;39.92;7.22;;;;;;;13.07;94.01;100943.56;5071795;28;20028;-48
2022/11/07 10:57:14;;;;;;;45.67;7.18;;;;;;;13.18;93.17;100949.81;5072187;28;20025;-48
2022/11/07 10:59:52;;;;;;;40.47;7.28;;;;;;;13.21;92.71;100951.59;5072713;28;20017;-48
2022/11/07 11:02:39;;;;;;;44.33;7.13;;;;;;;13.21;92.57;100954.16;5071875;28;20021;-47
2022/11/07 11:05:21;;;;;;;41.38;6.38;;;;;;;13.26;92.65;100947.38;5072328;28;20029;-47
2022/11/07 11:07:47;;;;;;;37.83;6.68;;;;;;;13.34;92.53;100953.59;5071629;28;20039;-48
2022/11/07 11:10:36;;;;;;;34.65;6.63;;;;;;;13.47;92.32;100955.59;5072243;28;20025;-45
2022/11/07 11:13:01;;;;;;;39.03;6.22;;;;;;;13.46;90.29;100940.06;5072017;28;20027;-47
2022/11/07 11:15:26;;;;;;;32.95;6.55;;;;;;;13.38;89.67;100939.91;5071679;28;20024;-47
2022/11/07 11:18:04;;;;;;;38.40;6.28;;;;;;;13.49;90.04;100935.81;5072427;28;20024;-47
2022/11/07 11:20:34;;;;;;;;;;;;;;;13.60;90.63;100935.13;5072985;28;20096;-47
2022/11/07 11:23:02;;;;;;;35.58;5.93;;;;;;;13.56;89.28;100933.34;5071378;28;19912;-47
2022/11/07 11:25:27;;;;;;;36.83;6.07;;;;;;;13.54;90.09;100930.69;5072386;28;20032;-47
2022/11/07 11:28:02;;;;;;;38.83;6.20;;;;;;;13.69;89.41;100924.94;5072044;28;20024;-47